Time;durP1;ratioP1;P1;durP2;ratioP2;P2;SDS_P1;SDS_P2;PMS_P1;PMS_P2;Temp;Humidity;BMP_temperature;BMP_pressure;BME280_temperature;BME280_humidity;BME280_pressure;Samples;Min_cycle;Max_cycle;Signal;HPM_P1;HPM_P2
2021/11/11 00:02:13;;;;;;;61.67;53.88;;;;;;;;;;4919058;29;20024;-74
2021/11/11 00:04:40;;;;;;;68.47;56.53;;;;;;;;;;4918792;29;20044;-74
2021/11/11 00:07:06;;;;;;;70.15;57.55;;;;;;;;;;4915433;29;20027;-74
2021/11/11 00:09:32;;;;;;;63.35;56.13;;;;;;;;;;4912609;29;20407;-74
2021/11/11 00:11:59;;;;;;;70.93;54.67;;;;;;;;;;4915060;29;20103;-73
2021/11/11 00:14:25;;;;;;;68.82;55.67;;;;;;;;;;4914053;29;20040;-74
2021/11/11 00:16:51;;;;;;;64.72;57.47;;;;;;;;;;4911597;29;20032;-74
2021/11/11 00:19:17;;;;;;;61.70;52.00;;;;;;;;;;4913010;29;20036;-74
2021/11/11 00:21:43;;;;;;;71.68;56.78;;;;;;;;;;4914009;29;20032;-74
2021/11/11 00:24:09;;;;;;;64.68;53.38;;;;;;;;;;4914473;29;20032;-74
2021/11/11 00:26:35;;;;;;;71.43;55.92;;;;;;;;;;4913924;29;20402;-75
2021/11/11 00:29:01;;;;;;;64.88;54.45;;;;;;;;;;4912241;29;20395;-74
2021/11/11 00:31:27;;;;;;;66.95;56.17;;;;;;;;;;4923094;29;20036;-74
2021/11/11 00:33:54;;;;;;;62.13;55.15;;;;;;;;;;4914522;29;20046;-74
2021/11/11 00:36:20;;;;;;;63.53;53.28;;;;;;;;;;4911544;29;20028;-74
2021/11/11 00:38:46;;;;;;;59.25;52.80;;;;;;;;;;4913024;29;20027;-74
2021/11/11 00:41:14;;;;;;;66.75;55.38;;;;;;;;;;4916423;29;20036;-75
2021/11/11 00:43:40;;;;;;;69.05;55.60;;;;;;;;;;4916444;29;20047;-74
2021/11/11 00:46:06;;;;;;;67.57;53.25;;;;;;;;;;4919934;29;20028;-74
2021/11/11 00:48:33;;;;;;;61.35;51.53;;;;;;;;;;4917467;29;20036;-74
2021/11/11 00:50:59;;;;;;;62.30;51.95;;;;;;;;;;4919149;29;20031;-74
2021/11/11 00:53:25;;;;;;;61.90;52.10;;;;;;;;;;4919624;29;20425;-73
2021/11/11 00:55:51;;;;;;;63.25;53.42;;;;;;;;;;4920304;29;20616;-74
2021/11/11 00:58:17;;;;;;;60.05;53.65;;;;;;;;;;4914774;29;20440;-74
2021/11/11 01:00:44;;;;;;;68.10;54.85;;;;;;;;;;4916885;29;20066;-74
2021/11/11 01:03:11;;;;;;;61.92;54.10;;;;;;;;;;4916367;29;20327;-73
2021/11/11 01:05:37;;;;;;;61.83;54.78;;;;;;;;;;4924794;29;20411;-74
2021/11/11 01:08:04;;;;;;;70.22;56.72;;;;;;;;;;4923107;29;20111;-74
2021/11/11 01:10:30;;;;;;;70.03;56.67;;;;;;;;;;4924557;29;20038;-74
2021/11/11 01:12:57;;;;;;;64.95;53.70;;;;;;;;;;4915404;29;20411;-76
2021/11/11 01:15:25;;;;;;;66.88;55.13;;;;;;;;;;4918804;29;20036;-74
2021/11/11 01:17:51;;;;;;;67.50;54.97;;;;;;;;;;4943047;29;20040;-74
2021/11/11 01:20:19;;;;;;;66.03;54.92;;;;;;;;;;4917870;29;20118;-74
2021/11/11 01:22:46;;;;;;;65.38;55.80;;;;;;;;;;4919270;29;20656;-74
2021/11/11 01:25:14;;;;;;;72.45;55.67;;;;;;;;;;4919781;29;20024;-74
2021/11/11 01:27:41;;;;;;;64.93;53.17;;;;;;;;;;4917305;29;20028;-74
2021/11/11 01:30:07;;;;;;;73.13;55.15;;;;;;;;;;4919298;29;20052;-74
2021/11/11 01:32:34;;;;;;;63.30;53.70;;;;;;;;;;4918229;29;20028;-74
2021/11/11 01:35:00;;;;;;;72.57;56.08;;;;;;;;;;4922007;29;20036;-74
2021/11/11 01:37:26;;;;;;;64.38;55.45;;;;;;;;;;4919750;29;20028;-74
2021/11/11 01:39:52;;;;;;;66.85;54.67;;;;;;;;;;4919194;29;20410;-75
2021/11/11 01:42:18;;;;;;;72.47;56.40;;;;;;;;;;4918856;29;20024;-75
2021/11/11 01:44:52;;;;;;;69.65;57.95;;;;;;;;;;4919654;29;20028;-74
2021/11/11 01:47:19;;;;;;;70.25;57.90;;;;;;;;;;4917718;29;20024;-74
2021/11/11 01:49:45;;;;;;;66.85;57.70;;;;;;;;;;4918964;29;20028;-74
2021/11/11 01:52:13;;;;;;;69.18;56.88;;;;;;;;;;4918717;29;20039;-74
2021/11/11 01:54:40;;;;;;;75.78;58.03;;;;;;;;;;4918880;29;20024;-74
2021/11/11 01:57:06;;;;;;;68.70;57.58;;;;;;;;;;4914162;29;20503;-74
2021/11/11 01:59:32;;;;;;;75.00;58.63;;;;;;;;;;4916655;29;20099;-75
2021/11/11 02:01:58;;;;;;;67.00;58.60;;;;;;;;;;4915999;29;20026;-74
2021/11/11 02:04:24;;;;;;;64.05;56.17;;;;;;;;;;4912846;29;20208;-74
2021/11/11 02:06:50;;;;;;;69.47;57.55;;;;;;;;;;4917082;29;20038;-74
2021/11/11 02:09:17;;;;;;;74.60;57.17;;;;;;;;;;4913961;29;20040;-75
2021/11/11 02:11:43;;;;;;;69.20;57.42;;;;;;;;;;4915903;29;20035;-74
2021/11/11 02:14:09;;;;;;;74.00;57.83;;;;;;;;;;4915677;29;20119;-74
2021/11/11 02:16:36;;;;;;;73.65;57.53;;;;;;;;;;4916604;29;20092;-74
2021/11/11 02:19:02;;;;;;;72.72;58.42;;;;;;;;;;4918893;29;20016;-75
2021/11/11 02:21:28;;;;;;;75.13;57.13;;;;;;;;;;4919593;29;20107;-74
2021/11/11 02:23:54;;;;;;;70.00;58.03;;;;;;;;;;4914484;29;20028;-74
2021/11/11 02:26:20;;;;;;;76.07;59.65;;;;;;;;;;4916127;29;20036;-74
2021/11/11 02:28:46;;;;;;;75.10;54.42;;;;;;;;;;4914566;29;20036;-74
2021/11/11 02:31:13;;;;;;;67.03;56.55;;;;;;;;;;4914415;29;20016;-74
2021/11/11 02:33:39;;;;;;;68.10;58.40;;;;;;;;;;4914074;29;20494;-73
2021/11/11 02:36:05;;;;;;;72.47;56.83;;;;;;;;;;4916801;29;20460;-74
2021/11/11 02:38:32;;;;;;;76.53;59.85;;;;;;;;;;4915756;29;20028;-75
2021/11/11 02:41:00;;;;;;;74.20;57.47;;;;;;;;;;4915475;29;20032;-74
2021/11/11 02:43:28;;;;;;;67.53;59.47;;;;;;;;;;4910681;29;20032;-74
2021/11/11 02:45:54;;;;;;;66.53;57.33;;;;;;;;;;4913765;29;20024;-74
2021/11/11 02:48:21;;;;;;;69.78;56.83;;;;;;;;;;4913944;29;20028;-74
2021/11/11 02:50:48;;;;;;;71.78;54.38;;;;;;;;;;4920094;29;20472;-74
2021/11/11 02:53:15;;;;;;;66.53;54.45;;;;;;;;;;4915960;29;20096;-74
2021/11/11 02:55:41;;;;;;;66.88;54.78;;;;;;;;;;4916586;29;20032;-74
2021/11/11 02:58:07;;;;;;;69.88;54.63;;;;;;;;;;4916655;29;20027;-74
2021/11/11 03:00:54;;;;;;;70.25;56.83;;;;;;;;;;4915368;29;20032;-74
2021/11/11 03:03:20;;;;;;;70.40;56.22;;;;;;;;;;4909342;29;20139;-74
2021/11/11 03:05:46;;;;;;;71.97;56.08;;;;;;;;;;4915867;29;20121;-74
2021/11/11 03:08:13;;;;;;;73.38;56.70;;;;;;;;;;4913497;29;20036;-74
2021/11/11 03:10:40;;;;;;;69.70;56.05;;;;;;;;;;4914585;29;21818;-74
2021/11/11 03:13:07;;;;;;;70.75;54.20;;;;;;;;;;4916517;29;20044;-74
2021/11/11 03:15:34;;;;;;;87.35;58.47;;;;;;;;;;4914687;29;20415;-74
2021/11/11 03:18:00;;;;;;;69.28;57.70;;;;;;;;;;4919488;29;20039;-75
2021/11/11 03:20:26;;;;;;;66.28;54.08;;;;;;;;;;4915369;29;20028;-73
2021/11/11 03:22:53;;;;;;;67.60;53.88;;;;;;;;;;4915429;29;20024;-74
2021/11/11 03:25:22;;;;;;;70.40;55.75;;;;;;;;;;4915034;29;20031;-74
2021/11/11 03:27:49;;;;;;;70.45;56.97;;;;;;;;;;4917371;29;20039;-75
2021/11/11 03:30:17;;;;;;;71.88;56.75;;;;;;;;;;4913095;29;20032;-74
2021/11/11 03:32:43;;;;;;;70.55;58.50;;;;;;;;;;4924359;29;20056;-75
2021/11/11 03:35:09;;;;;;;73.97;55.35;;;;;;;;;;4914754;29;20062;-74
2021/11/11 03:37:36;;;;;;;82.07;58.63;;;;;;;;;;4914103;29;20024;-78
2021/11/11 03:40:04;;;;;;;79.35;59.78;;;;;;;;;;4914187;29;20607;-74
2021/11/11 03:42:30;;;;;;;77.43;58.72;;;;;;;;;;4909175;29;20103;-75
2021/11/11 03:44:56;;;;;;;74.50;60.10;;;;;;;;;;4916578;29;20028;-74
2021/11/11 03:47:22;;;;;;;85.10;60.72;;;;;;;;;;4914468;29;20579;-75
2021/11/11 03:49:49;;;;;;;71.80;59.42;;;;;;;;;;4913032;29;20044;-74
2021/11/11 03:52:15;;;;;;;66.45;58.40;;;;;;;;;;4914659;29;20281;-74
2021/11/11 03:54:42;;;;;;;72.28;60.47;;;;;;;;;;4922102;29;20032;-74
2021/11/11 03:57:09;;;;;;;74.47;61.05;;;;;;;;;;4914832;29;20032;-74
2021/11/11 03:59:36;;;;;;;75.38;59.28;;;;;;;;;;4913091;29;20028;-74
2021/11/11 04:02:03;;;;;;;72.38;57.25;;;;;;;;;;4915159;29;20028;-75
2021/11/11 04:04:29;;;;;;;75.20;60.47;;;;;;;;;;4912298;29;20075;-74
2021/11/11 04:06:55;;;;;;;75.93;59.80;;;;;;;;;;4914782;29;20028;-75
2021/11/11 04:09:22;;;;;;;73.00;59.67;;;;;;;;;;4912123;29;20373;-74
2021/11/11 04:11:48;;;;;;;73.22;60.40;;;;;;;;;;4910827;29;20079;-74
2021/11/11 04:14:15;;;;;;;73.38;59.45;;;;;;;;;;4914772;29;20555;-74
2021/11/11 04:16:42;;;;;;;77.10;58.20;;;;;;;;;;4913348;29;20036;-74
2021/11/11 04:19:08;;;;;;;80.40;58.80;;;;;;;;;;4910683;29;20048;-74
2021/11/11 04:21:34;;;;;;;76.55;60.50;;;;;;;;;;4913772;29;20032;-74
2021/11/11 04:24:01;;;;;;;69.75;61.58;;;;;;;;;;4914085;29;20411;-74
2021/11/11 04:26:29;;;;;;;73.05;60.33;;;;;;;;;;4922014;29;20036;-73
2021/11/11 04:29:02;;;;;;;71.20;60.63;;;;;;;;;;4908879;29;20020;-74
2021/11/11 04:31:32;;;;;;;81.15;62.25;;;;;;;;;;4917979;29;20042;-73
2021/11/11 04:34:04;;;;;;;76.40;59.50;;;;;;;;;;4911750;29;20426;-73
2021/11/11 05:05:17;;;;;;;80.13;59.97;;;;;;;;;;4914677;29;20543;-74
2021/11/11 05:07:43;;;;;;;75.85;62.33;;;;;;;;;;4920791;29;20032;-74
2021/11/11 05:10:10;;;;;;;76.82;61.97;;;;;;;;;;4913408;29;20412;-74
2021/11/11 05:12:36;;;;;;;80.30;64.15;;;;;;;;;;4916165;29;20031;-74
2021/11/11 05:15:02;;;;;;;81.63;63.78;;;;;;;;;;4913393;29;20028;-74
2021/11/11 05:17:28;;;;;;;77.05;61.00;;;;;;;;;;4914946;29;20434;-74
2021/11/11 05:19:54;;;;;;;83.53;61.60;;;;;;;;;;4912195;29;20031;-73
2021/11/11 05:22:21;;;;;;;86.82;64.85;;;;;;;;;;4920265;29;20036;-74
2021/11/11 05:24:48;;;;;;;86.50;64.30;;;;;;;;;;4913736;29;20036;-74
2021/11/11 05:27:14;;;;;;;86.07;64.75;;;;;;;;;;4911193;29;20076;-73
2021/11/11 05:29:41;;;;;;;88.00;64.18;;;;;;;;;;4912072;29;20036;-73
2021/11/11 05:32:08;;;;;;;80.57;63.97;;;;;;;;;;4914672;29;20020;-74
2021/11/11 05:34:34;;;;;;;87.22;64.25;;;;;;;;;;4914185;29;20032;-75
2021/11/11 05:37:00;;;;;;;100.25;64.20;;;;;;;;;;4915324;29;20056;-74
2021/11/11 05:39:26;;;;;;;89.50;63.38;;;;;;;;;;4915225;29;20039;-76
2021/11/11 05:41:52;;;;;;;83.93;61.72;;;;;;;;;;4931428;29;20039;-74
2021/11/11 05:44:18;;;;;;;83.07;62.65;;;;;;;;;;4916856;29;20028;-73
2021/11/11 05:46:44;;;;;;;84.90;62.33;;;;;;;;;;4918934;29;20051;-74
2021/11/11 05:49:10;;;;;;;80.32;61.45;;;;;;;;;;4919420;29;20106;-75
2021/11/11 05:51:36;;;;;;;83.65;59.72;;;;;;;;;;4916105;29;20024;-74
2021/11/11 05:54:02;;;;;;;87.53;62.83;;;;;;;;;;4914994;29;20035;-74
2021/11/11 05:56:29;;;;;;;86.40;62.42;;;;;;;;;;4927354;29;20517;-73
2021/11/11 05:58:55;;;;;;;83.32;58.10;;;;;;;;;;4916858;29;20110;-74
2021/11/11 06:01:21;;;;;;;90.25;63.35;;;;;;;;;;4919172;29;20042;-73
2021/11/11 06:03:47;;;;;;;83.35;60.42;;;;;;;;;;4920535;29;20067;-75
2021/11/11 06:06:13;;;;;;;82.68;64.10;;;;;;;;;;4915862;29;20498;-74
2021/11/11 06:08:39;;;;;;;81.80;61.38;;;;;;;;;;4913904;29;20416;-73
2021/11/11 06:11:05;;;;;;;84.90;62.40;;;;;;;;;;4918694;29;20746;-73
2021/11/11 06:13:31;;;;;;;86.82;62.88;;;;;;;;;;4913834;29;20036;-74
2021/11/11 06:15:57;;;;;;;84.28;61.70;;;;;;;;;;4914878;29;20036;-74
2021/11/11 06:18:23;;;;;;;92.75;61.90;;;;;;;;;;4906036;29;20039;-74
2021/11/11 06:20:57;;;;;;;81.22;61.22;;;;;;;;;;4910470;29;20036;-74
2021/11/11 06:23:24;;;;;;;85.72;62.97;;;;;;;;;;4913889;29;20036;-74
2021/11/11 06:25:50;;;;;;;84.78;60.92;;;;;;;;;;4914547;29;20324;-74
2021/11/11 06:28:16;;;;;;;84.25;60.08;;;;;;;;;;4912380;29;20439;-74
2021/11/11 06:30:42;;;;;;;81.90;61.22;;;;;;;;;;4910466;29;20142;-74
2021/11/11 06:33:08;;;;;;;89.20;62.10;;;;;;;;;;4932907;29;20060;-74
2021/11/11 06:35:34;;;;;;;77.60;60.78;;;;;;;;;;4912473;29;20032;-74
2021/11/11 06:38:01;;;;;;;79.40;61.10;;;;;;;;;;4923530;29;20024;-74
2021/11/11 06:40:28;;;;;;;79.43;63.85;;;;;;;;;;4915079;29;20032;-74
2021/11/11 06:42:56;;;;;;;82.30;62.15;;;;;;;;;;4911928;29;20032;-74
2021/11/11 06:45:22;;;;;;;78.18;61.00;;;;;;;;;;4915216;29;20064;-74
2021/11/11 06:47:48;;;;;;;81.38;61.83;;;;;;;;;;4914193;29;20075;-74
2021/11/11 06:50:15;;;;;;;83.13;61.03;;;;;;;;;;4913683;29;20047;-74
2021/11/11 06:52:41;;;;;;;89.15;59.88;;;;;;;;;;4917347;29;20056;-74
2021/11/11 06:55:08;;;;;;;88.13;63.40;;;;;;;;;;4915200;29;20117;-74
2021/11/11 06:57:34;;;;;;;76.25;60.28;;;;;;;;;;4913808;29;20032;-74
2021/11/11 07:00:00;;;;;;;80.28;61.95;;;;;;;;;;4911373;29;20039;-74
2021/11/11 07:02:26;;;;;;;77.72;59.90;;;;;;;;;;4917148;29;20032;-73
2021/11/11 07:04:53;;;;;;;85.60;63.42;;;;;;;;;;4910029;29;20044;-74
2021/11/11 07:07:19;;;;;;;80.57;61.00;;;;;;;;;;4914403;29;20047;-74
2021/11/11 07:09:45;;;;;;;85.35;60.00;;;;;;;;;;4910211;29;20036;-74
2021/11/11 07:12:11;;;;;;;85.65;63.83;;;;;;;;;;4912004;29;20055;-74
2021/11/11 07:14:41;;;;;;;75.55;61.50;;;;;;;;;;4910486;29;20056;-74
2021/11/11 07:17:07;;;;;;;84.35;62.00;;;;;;;;;;4912122;29;20032;-74
2021/11/11 07:19:34;;;;;;;85.18;63.80;;;;;;;;;;4914163;29;20036;-75
2021/11/11 07:22:00;;;;;;;86.22;62.58;;;;;;;;;;4913168;29;20250;-74
2021/11/11 07:24:27;;;;;;;84.85;62.65;;;;;;;;;;4916840;29;20040;-74
2021/11/11 07:26:53;;;;;;;89.03;63.13;;;;;;;;;;4922523;29;20507;-75
2021/11/11 07:29:21;;;;;;;87.00;62.63;;;;;;;;;;4910185;29;20169;-74
2021/11/11 07:31:51;;;;;;;85.38;60.97;;;;;;;;;;4912662;29;20082;-74
2021/11/11 07:34:18;;;;;;;88.93;62.45;;;;;;;;;;4913227;29;20032;-74
2021/11/11 07:36:44;;;;;;;80.28;58.35;;;;;;;;;;4912201;29;20032;-74
2021/11/11 07:39:10;;;;;;;76.78;60.60;;;;;;;;;;4909983;29;20024;-74
2021/11/11 07:44:13;;;;;;;86.18;58.25;;;;;;;;;;3278519;27;20565;-66
2021/11/11 07:46:41;;;;;;;89.85;59.75;;;;;;;;;;4999370;23;20051;-68
2021/11/11 07:49:09;;;;;;;80.90;59.50;;;;;;;;;;4951377;28;20031;-68
2021/11/11 07:51:35;;;;;;;82.40;60.50;;;;;;;;;;4944386;28;20027;-68
2021/11/11 07:54:02;;;;;;;75.88;58.03;;;;;;;;;;4955716;28;20026;-67
2021/11/11 07:56:29;;;;;;;80.43;55.83;;;;;;;;;;4936573;29;20066;-68
2021/11/11 07:58:55;;;;;;;80.72;55.65;;;;;;;;;;4949165;28;20122;-68
2021/11/11 08:01:21;;;;;;;78.90;57.83;;;;;;;;;;4956029;28;20042;-68
2021/11/11 08:03:48;;;;;;;82.00;55.90;;;;;;;;;;4960419;28;20521;-68
2021/11/11 08:06:14;;;;;;;88.03;57.47;;;;;;;;;;4954597;28;20023;-68
2021/11/11 08:08:40;;;;;;;80.05;55.80;;;;;;;;;;4937770;28;20078;-68
2021/11/11 08:11:06;;;;;;;84.65;56.83;;;;;;;;;;4945709;28;20509;-68
2021/11/11 08:13:33;;;;;;;83.15;58.85;;;;;;;;;;4942773;28;20127;-68
2021/11/11 08:15:59;;;;;;;80.75;57.95;;;;;;;;;;4949538;28;20055;-68
2021/11/11 08:18:26;;;;;;;83.57;57.05;;;;;;;;;;4944136;28;20142;-68
2021/11/11 08:20:54;;;;;;;83.93;58.80;;;;;;;;;;4963212;28;20078;-68
2021/11/11 08:23:20;;;;;;;86.45;57.33;;;;;;;;;;4940866;28;20035;-68
2021/11/11 08:25:48;;;;;;;82.53;58.33;;;;;;;;;;4957549;28;20031;-68
2021/11/11 08:28:14;;;;;;;83.93;58.25;;;;;;;;;;4962918;28;20094;-68
2021/11/11 08:30:41;;;;;;;81.65;58.28;;;;;;;;;;4950520;28;20482;-68
2021/11/11 08:33:07;;;;;;;86.68;61.38;;;;;;;;;;4956874;28;20082;-68
2021/11/11 08:35:35;;;;;;;84.05;59.80;;;;;;;;;;4963339;28;20035;-68
2021/11/11 08:38:01;;;;;;;92.30;59.33;;;;;;;;;;4960146;28;20031;-67
2021/11/11 08:40:27;;;;;;;93.03;60.15;;;;;;;;;;4956913;28;20034;-67
2021/11/11 08:42:55;;;;;;;81.63;57.60;;;;;;;;;;4963786;28;20050;-67
2021/11/11 08:45:22;;;;;;;90.20;59.05;;;;;;;;;;4953443;28;20113;-67
2021/11/11 08:47:48;;;;;;;88.22;60.25;;;;;;;;;;4941091;28;20019;-68
2021/11/11 08:50:14;;;;;;;91.60;60.70;;;;;;;;;;4951588;28;20390;-68
2021/11/11 08:52:44;;;;;;;95.72;62.97;;;;;;;;;;4954777;28;20031;-68
2021/11/11 08:55:15;;;;;;;84.47;59.67;;;;;;;;;;4953846;28;20046;-68
2021/11/11 08:57:42;;;;;;;80.97;60.50;;;;;;;;;;4956854;28;20019;-68
2021/11/11 09:00:14;;;;;;;88.30;63.45;;;;;;;;;;4956268;28;20401;-67
2021/11/11 09:02:40;;;;;;;84.97;58.67;;;;;;;;;;4955859;28;20501;-67
2021/11/11 09:05:06;;;;;;;85.65;59.70;;;;;;;;;;4954004;28;20023;-67
2021/11/11 09:07:33;;;;;;;83.25;59.28;;;;;;;;;;4951327;28;20030;-67
2021/11/11 09:09:59;;;;;;;84.43;60.42;;;;;;;;;;4956410;28;20107;-68
2021/11/11 09:12:25;;;;;;;90.00;60.92;;;;;;;;;;4953223;28;20035;-67
2021/11/11 09:14:51;;;;;;;86.38;62.88;;;;;;;;;;4956602;28;20086;-67
2021/11/11 09:17:18;;;;;;;92.88;63.00;;;;;;;;;;4966936;28;20042;-67
2021/11/11 09:19:44;;;;;;;87.25;62.15;;;;;;;;;;4953219;28;20110;-67
2021/11/11 09:22:10;;;;;;;80.60;60.80;;;;;;;;;;4955831;28;20065;-67
2021/11/11 09:24:36;;;;;;;88.35;62.42;;;;;;;;;;4955913;28;20039;-67
2021/11/11 09:27:02;;;;;;;91.57;63.10;;;;;;;;;;4962618;28;20102;-68
2021/11/11 09:29:28;;;;;;;93.97;62.00;;;;;;;;;;4956045;28;20394;-67
2021/11/11 09:31:54;;;;;;;88.85;62.53;;;;;;;;;;4955832;28;20046;-67
2021/11/11 09:34:20;;;;;;;88.28;63.40;;;;;;;;;;4951364;28;20035;-67
2021/11/11 09:36:47;;;;;;;91.03;61.45;;;;;;;;;;4937950;28;20455;-68
2021/11/11 09:39:13;;;;;;;91.53;63.03;;;;;;;;;;4950236;28;20391;-68
2021/11/11 09:41:40;;;;;;;95.95;62.10;;;;;;;;;;4956613;28;20027;-68
2021/11/11 09:44:06;;;;;;;92.22;62.58;;;;;;;;;;4953357;28;20413;-68
2021/11/11 09:46:32;;;;;;;90.63;61.97;;;;;;;;;;4952879;28;20399;-68
2021/11/11 09:48:58;;;;;;;89.22;62.42;;;;;;;;;;4935977;29;20027;-68
2021/11/11 09:51:24;;;;;;;93.57;63.90;;;;;;;;;;4953670;28;20035;-67
2021/11/11 09:53:58;;;;;;;104.18;65.93;;;;;;;;;;4936798;28;20035;-67
2021/11/11 09:59:10;;;;;;;89.18;63.30;;;;;;;;;;4942484;28;20069;-68
2021/11/11 10:01:36;;;;;;;86.80;64.75;;;;;;;;;;4954155;28;20482;-68
2021/11/11 10:04:02;;;;;;;90.85;63.38;;;;;;;;;;4948999;28;20134;-68
2021/11/11 10:06:30;;;;;;;96.25;67.72;;;;;;;;;;4931195;29;20057;-68
2021/11/11 10:08:57;;;;;;;89.65;63.55;;;;;;;;;;4946152;28;20050;-68
2021/11/11 10:11:26;;;;;;;89.38;63.78;;;;;;;;;;4931748;29;20023;-69
2021/11/11 10:13:56;;;;;;;85.97;63.80;;;;;;;;;;4949161;28;20033;-68
2021/11/11 10:16:22;;;;;;;97.60;63.83;;;;;;;;;;4948512;28;20042;-69
2021/11/11 10:18:51;;;;;;;91.00;63.70;;;;;;;;;;4953631;28;20028;-68
2021/11/11 10:22:01;;;;;;;91.18;64.22;;;;;;;;;;4931373;29;20563;-68
2021/11/11 10:24:22;;;;;;;92.47;63.72;;;;;;;;;;4945956;28;20438;-68
2021/11/11 10:26:57;;;;;;;89.07;63.75;;;;;;;;;;4930241;28;20020;-68
2021/11/11 10:29:31;;;;;;;91.03;64.55;;;;;;;;;;4944590;28;20102;-68
2021/11/11 10:32:09;;;;;;;93.93;64.32;;;;;;;;;;4948371;28;20496;-68
2021/11/11 10:34:56;;;;;;;99.60;65.75;;;;;;;;;;4944686;28;20031;-68
2021/11/11 10:37:24;;;;;;;95.68;63.78;;;;;;;;;;4949826;28;20414;-68
2021/11/11 10:39:52;;;;;;;84.47;62.88;;;;;;;;;;4957026;28;20882;-68
2021/11/11 10:42:20;;;;;;;91.40;64.15;;;;;;;;;;4940470;29;20035;-69
2021/11/11 10:44:48;;;;;;;91.55;62.80;;;;;;;;;;4937112;28;20035;-68
2021/11/11 10:47:19;;;;;;;91.70;63.25;;;;;;;;;;4932567;29;20094;-68
2021/11/11 10:49:45;;;;;;;90.47;61.23;;;;;;;;;;4950108;28;20031;-68
2021/11/11 10:52:23;;;;;;;96.95;67.00;;;;;;;;;;4948716;28;20265;-68
2021/11/11 10:55:07;;;;;;;85.05;59.50;;;;;;;;;;4935187;28;20115;-68
2021/11/11 10:57:33;;;;;;;93.45;64.13;;;;;;;;;;4943339;28;20031;-68
2021/11/11 11:00:20;;;;;;;85.78;63.65;;;;;;;;;;4935518;29;20023;-68
2021/11/11 11:02:51;;;;;;;98.40;63.50;;;;;;;;;;4951212;28;20062;-67
2021/11/11 11:05:18;;;;;;;89.53;60.92;;;;;;;;;;4947716;28;20049;-68
2021/11/11 11:07:47;;;;;;;92.32;63.22;;;;;;;;;;4953705;28;20027;-69
2021/11/11 11:10:17;;;;;;;82.95;62.90;;;;;;;;;;4948602;28;20020;-69
2021/11/11 11:12:43;;;;;;;88.75;62.88;;;;;;;;;;4927935;28;20050;-69
2021/11/11 11:15:09;;;;;;;88.82;64.65;;;;;;;;;;4949717;28;20247;-69
2021/11/11 11:17:35;;;;;;;92.70;62.78;;;;;;;;;;4945779;28;20031;-69
2021/11/11 11:20:18;;;;;;;81.15;62.42;;;;;;;;;;4945889;28;20019;-69
2021/11/11 11:22:45;;;;;;;82.78;61.40;;;;;;;;;;4944655;28;20106;-69
2021/11/11 11:25:11;;;;;;;86.57;61.08;;;;;;;;;;4945985;28;20023;-69
2021/11/11 11:27:37;;;;;;;85.47;62.58;;;;;;;;;;4947278;28;20095;-69
2021/11/11 11:30:13;;;;;;;89.53;64.93;;;;;;;;;;4945233;28;20026;-69
2021/11/11 11:32:42;;;;;;;85.65;62.38;;;;;;;;;;4931287;28;20051;-69
2021/11/11 11:35:09;;;;;;;89.93;63.35;;;;;;;;;;4946791;28;20379;-69
2021/11/11 11:37:36;;;;;;;79.80;63.58;;;;;;;;;;4947723;28;20061;-69
2021/11/11 11:40:07;;;;;;;86.20;62.75;;;;;;;;;;4942843;28;20046;-69
2021/11/11 11:42:36;;;;;;;86.57;64.32;;;;;;;;;;4946762;28;20027;-69
2021/11/11 11:45:05;;;;;;;87.78;62.10;;;;;;;;;;4946512;28;20027;-69
2021/11/11 11:47:38;;;;;;;80.18;61.50;;;;;;;;;;4944820;28;20070;-69
2021/11/11 11:50:07;;;;;;;83.70;63.05;;;;;;;;;;4944240;28;20178;-69
2021/11/11 11:52:35;;;;;;;82.47;62.55;;;;;;;;;;4945640;28;20034;-69
2021/11/11 11:57:33;;;;;;;80.72;61.17;;;;;;;;;;4946654;28;20063;-69
2021/11/11 12:15:51;;;;;;;78.47;63.08;;;;;;;;;;4945027;28;20031;-70
2021/11/11 12:28:26;;;;;;;81.13;63.50;;;;;;;;;;4941885;28;20060;-70
2021/11/11 12:39:24;;;;;;;81.30;65.10;;;;;;;;;;4913571;28;20121;-70
2021/11/11 12:41:57;;;;;;;81.57;64.78;;;;;;;;;;4943537;28;20046;-70
2021/11/11 12:44:23;;;;;;;76.18;60.80;;;;;;;;;;4948836;28;20035;-69
2021/11/11 12:46:50;;;;;;;86.82;64.88;;;;;;;;;;4943846;28;20125;-69
2021/11/11 12:49:30;;;;;;;83.75;66.90;;;;;;;;;;4944718;28;20028;-70
2021/11/11 12:52:14;;;;;;;74.40;62.65;;;;;;;;;;4952568;28;20027;-70
2021/11/11 12:54:41;;;;;;;81.13;64.78;;;;;;;;;;4952696;28;20031;-70
2021/11/11 12:57:08;;;;;;;85.50;66.55;;;;;;;;;;4952164;28;20270;-70
2021/11/11 12:59:35;;;;;;;77.50;64.25;;;;;;;;;;4946329;28;20115;-70
2021/11/11 13:02:05;;;;;;;81.55;67.10;;;;;;;;;;4950208;28;20027;-70
2021/11/11 13:04:50;;;;;;;77.80;62.03;;;;;;;;;;4931333;28;20033;-70
2021/11/11 13:07:24;;;;;;;80.65;61.95;;;;;;;;;;4943818;28;20130;-70
2021/11/11 13:10:11;;;;;;;79.90;65.72;;;;;;;;;;4940624;28;20036;-70
2021/11/11 13:12:38;;;;;;;84.57;62.58;;;;;;;;;;4944584;28;20406;-70
2021/11/11 13:15:14;;;;;;;79.85;64.35;;;;;;;;;;4943853;28;20038;-70
2021/11/11 13:17:45;;;;;;;77.13;61.70;;;;;;;;;;4944604;28;20055;-70
2021/11/11 13:20:20;;;;;;;78.90;63.40;;;;;;;;;;4940803;28;20110;-70
2021/11/11 13:22:59;;;;;;;84.13;62.42;;;;;;;;;;4944990;28;20098;-70
2021/11/11 13:29:05;;;;;;;73.88;61.08;;;;;;;;;;4942468;28;20102;-70
2021/11/11 15:15:56;;;;;;;78.33;60.87;;;;;;;;;;4945073;28;20050;-71
2021/11/11 16:02:43;;;;;;;80.95;63.90;;;;;;;;;;4952304;28;20030;-71
2021/11/11 16:26:56;;;;;;;84.38;61.38;;;;;;;;;;4954192;28;20038;-71
2021/11/11 16:29:23;;;;;;;77.47;62.92;;;;;;;;;;4950452;28;20031;-71
2021/11/11 16:31:49;;;;;;;81.55;63.88;;;;;;;;;;4964799;28;20560;-71
2021/11/11 16:34:15;;;;;;;79.70;65.22;;;;;;;;;;4951924;28;20043;-71
2021/11/11 16:36:42;;;;;;;87.47;67.20;;;;;;;;;;4944845;28;20031;-71
2021/11/11 16:39:09;;;;;;;83.07;66.97;;;;;;;;;;4924452;29;20043;-71
2021/11/11 16:41:35;;;;;;;80.38;64.68;;;;;;;;;;4943008;28;20035;-71
2021/11/11 16:44:02;;;;;;;91.30;63.38;;;;;;;;;;4926244;29;20034;-71
2021/11/11 16:46:28;;;;;;;83.95;63.90;;;;;;;;;;4942776;28;20050;-71
2021/11/11 16:48:54;;;;;;;86.15;66.07;;;;;;;;;;4928419;29;20059;-71
2021/11/11 16:51:20;;;;;;;81.00;64.10;;;;;;;;;;4948058;28;20464;-71
2021/11/11 16:53:46;;;;;;;79.45;64.10;;;;;;;;;;4953155;28;20082;-71
2021/11/11 16:56:12;;;;;;;78.03;65.00;;;;;;;;;;4945601;28;20366;-70
2021/11/11 16:58:39;;;;;;;86.90;67.30;;;;;;;;;;4917643;28;20043;-71
2021/11/11 17:01:05;;;;;;;83.80;63.55;;;;;;;;;;4941819;28;20522;-71
2021/11/11 17:03:32;;;;;;;81.88;65.18;;;;;;;;;;4945563;28;20046;-70
2021/11/11 17:05:58;;;;;;;83.88;66.80;;;;;;;;;;4951039;28;20617;-71
2021/11/11 17:08:25;;;;;;;84.53;68.15;;;;;;;;;;4929401;29;20517;-70
2021/11/11 17:10:51;;;;;;;85.88;66.20;;;;;;;;;;4949447;28;20058;-71
2021/11/11 17:13:17;;;;;;;83.90;66.63;;;;;;;;;;4942642;28;20035;-71
2021/11/11 17:15:44;;;;;;;91.43;67.97;;;;;;;;;;4919692;28;20063;-71
2021/11/11 17:18:12;;;;;;;85.15;66.18;;;;;;;;;;4938572;28;20388;-71
2021/11/11 17:20:38;;;;;;;81.97;66.65;;;;;;;;;;4945935;28;20036;-71
2021/11/11 17:23:06;;;;;;;82.75;65.25;;;;;;;;;;4943640;28;20162;-71
2021/11/11 17:25:40;;;;;;;82.78;69.07;;;;;;;;;;4937407;28;20034;-71
2021/11/11 17:30:38;;;;;;;82.13;66.53;;;;;;;;;;4947160;28;20090;-71
2021/11/11 17:33:05;;;;;;;88.85;69.10;;;;;;;;;;4935096;29;20109;-71
2021/11/11 17:35:31;;;;;;;87.40;68.72;;;;;;;;;;4944581;23;20055;-71
2021/11/11 17:37:57;;;;;;;85.05;67.88;;;;;;;;;;4955000;28;20031;-71
2021/11/11 17:40:24;;;;;;;80.65;64.68;;;;;;;;;;4950631;28;20126;-71
2021/11/11 17:42:51;;;;;;;85.35;67.75;;;;;;;;;;4951004;28;20105;-71
2021/11/11 17:45:26;;;;;;;89.95;70.88;;;;;;;;;;4959716;28;20026;-71
2021/11/11 17:47:54;;;;;;;93.55;73.22;;;;;;;;;;4948638;28;20078;-71
2021/11/11 17:50:25;;;;;;;92.07;71.43;;;;;;;;;;4946401;28;20023;-71
2021/11/11 17:53:04;;;;;;;89.78;71.65;;;;;;;;;;4944279;28;20515;-71
2021/11/11 17:55:34;;;;;;;85.75;68.60;;;;;;;;;;4953574;28;20039;-70
2021/11/11 17:58:01;;;;;;;84.85;67.07;;;;;;;;;;4948099;28;20098;-70
2021/11/11 18:00:28;;;;;;;89.03;70.05;;;;;;;;;;4949245;28;20138;-71
2021/11/11 18:02:55;;;;;;;90.53;70.82;;;;;;;;;;4951636;28;20101;-70
2021/11/11 18:05:22;;;;;;;84.43;68.65;;;;;;;;;;4951382;28;20047;-71
2021/11/11 18:10:45;;;;;;;85.32;67.10;;;;;;;;;;4939642;28;20023;-70
2021/11/11 18:13:14;;;;;;;88.00;68.05;;;;;;;;;;4953348;28;20042;-71
2021/11/11 18:15:44;;;;;;;91.20;69.25;;;;;;;;;;4958378;28;20056;-71
2021/11/11 18:18:10;;;;;;;87.93;67.75;;;;;;;;;;4951404;28;20098;-70
2021/11/11 18:20:36;;;;;;;87.72;66.72;;;;;;;;;;4948283;28;20031;-71
2021/11/11 18:23:03;;;;;;;83.25;66.80;;;;;;;;;;4952376;28;20102;-70
2021/11/11 18:25:30;;;;;;;88.40;68.07;;;;;;;;;;4958348;28;20035;-71
2021/11/11 18:27:59;;;;;;;88.70;68.53;;;;;;;;;;4943080;28;20328;-71
2021/11/11 18:30:31;;;;;;;85.00;67.45;;;;;;;;;;4942032;28;20459;-71